Home > Products > Valid Products > TAF

000
FTUS43 KMQT 211100
TAFCMX
TAF
KCMX 211137Z 2112/2212 16006KT P6SM SCT015 OVC035
      TEMPO 2112/2116 BKN015
     FM211600 16009KT P6SM OVC025
     FM212100 15013KT 4SM -SN OVC015
     FM220000 15009KT 1SM -SN OVC007
     FM220700 14009KT 3SM -SN OVC010=



000
FTUS43 KMQT 211100
TAFSAW
TAF
KSAW 211137Z 2112/2212 18007KT 5SM BR OVC025
     FM211400 18009KT 4SM BR OVC015
     FM211600 18010G20KT 4SM -FZDZSN BR OVC008
     FM220000 17015G25KT 2SM -SN OVC008
     FM220700 17012G22KT 4SM -SN OVC010
      AMD LTD TO CLD VIS AND WIND 2203/2211=



000
FTUS43 KMQT 210500
TAFSAW
TAF
KSAW 210525Z 2106/2206 19005KT P6SM OVC020
     FM211300 19006KT P6SM OVC010
     FM211800 18011G18KT P6SM -SN OVC009
     FM220000 17015G23KT 2SM -SN OVC008
      AMD LTD TO CLD VIS AND WIND TIL 211100=



000
FTUS43 KMQT 210500
TAFCMX
TAF
KCMX 210525Z 2106/2206 17006KT P6SM OVC025
     FM212000 15010KT 4SM -SN OVC012
     FM220100 15010G17KT 1SM -SN OVC007=



000
FTUS43 KMQT 202300
TAFCMX
TAF
KCMX 202321Z 2100/2124 18006KT P6SM OVC020
     FM211500 17010KT P6SM OVC015=



000
FTUS43 KMQT 202300
TAFSAW
TAF
KSAW 202321Z 2100/2124 19005KT P6SM OVC020
     FM211300 19006KT P6SM OVC010
     FM211800 19011G18KT P6SM -SN OVC010
      AMD LTD TO CLD VIS AND WIND 2103/2111=



000
FTUS43 KMQT 202000 AAA
TAFSAW
TAF AMD
KSAW 202051Z 2021/2118 19004KT P6SM BKN015
     FM210200 20005KT P6SM BKN020
     FM211300 19006KT P6SM OVC015
     FM211700 19010KT P6SM OVC015
      AMD LTD TO CLD VIS AND WIND 2103/2111=



000
FTUS43 KMQT 202000 AAA
TAFCMX
TAF AMD
KCMX 202048Z 2021/2118 17003KT P6SM OVC020
     FM210400 19005KT P6SM SCT015 OVC020
     FM211100 17006KT P6SM BKN015
     FM211700 17008KT P6SM OVC015=



000
FTUS43 KMQT 201700
TAFCMX
TAF
KCMX 201735Z 2018/2118 18005KT P6SM OVC015
     FM210400 18008KT P6SM BKN025
     FM211100 18006KT P6SM BKN020
     FM211700 17008KT P6SM OVC025=



000
FTUS43 KMQT 201700
TAFSAW
TAF
KSAW 201735Z 2018/2118 19005KT P6SM BKN015
     FM210200 20006KT P6SM BKN020
     FM211300 19006KT P6SM OVC025
     FM211700 19009KT P6SM OVC020
      AMD LTD TO CLD VIS AND WIND 2103/2111=



000
FTUS43 KMQT 201100
TAFSAW
TAF
KSAW 201139Z 2012/2112 00000KT P6SM SCT020 OVC080
      TEMPO 2012/2013 1SM BR VV002
     FM201400 19005KT P6SM BKN015
     FM210200 20006KT P6SM BKN020
      AMD LTD TO CLD VIS AND WIND 2103/2111=



000
FTUS43 KMQT 201100
TAFCMX
TAF
KCMX 201139Z 2012/2112 18005KT P6SM OVC015
     FM210400 18008KT P6SM BKN025=



000
FTUS43 KMQT 200800 AAA
TAFSAW
TAF AMD
KSAW 200808Z 2008/2106 00000KT 1/2SM FZFG VV001
     FM201000 00000KT P6SM SCT020
      TEMPO 2010/2013 1SM BR BKN006
     FM201800 19005KT P6SM OVC025
      AMD LTD TO CLD VIS AND WIND TIL 201100=



000
FTUS43 KMQT 200500
TAFSAW
TAF
KSAW 200534Z 2006/2106 00000KT P6SM SCT090
      TEMPO 2006/2008 1/2SM FZFG VV005
     FM200800 18003KT P6SM SCT090
     FM201800 19005KT P6SM OVC025
      AMD LTD TO CLD VIS AND WIND TIL 201100=



000
FTUS43 KMQT 200500
TAFCMX
TAF
KCMX 200534Z 2006/2106 18005KT P6SM OVC090
     FM201000 18005KT P6SM OVC020=



000
FTUS43 KMQT 200400 AAA
TAFCMX
TAF AMD
KCMX 200424Z 2004/2024 18004KT P6SM OVC090
      TEMPO 2004/2008 OVC020
     FM200800 18005KT P6SM OVC020=



000
FTUS43 KMQT 200200 AAA
TAFSAW
TAF AMD
KSAW 200256Z 2003/2024 18003KT P6SM SCT014
     FM200600 19005KT P6SM OVC020
      AMD LTD TO CLD VIS AND WIND 2003/2011=



000
FTUS43 KMQT 192300
TAFCMX
TAF
KCMX 192321Z 2000/2024 18004KT P6SM OVC020
     FM201700 20003KT P6SM OVC025=



000
FTUS43 KMQT 192300
TAFSAW
TAF
KSAW 192321Z 2000/2024 00000KT P6SM OVC018
     FM200400 00000KT P6SM SCT020
     FM201000 20005KT P6SM OVC020
      AMD LTD TO CLD VIS AND WIND 2003/2011=



000
FTUS43 KMQT 191700
TAFSAW
TAF
KSAW 191735Z 1918/2018 00000KT P6SM BKN020
     FM192200 00000KT P6SM BKN025
     FM200000 00000KT P6SM SCT025
     FM200800 21003KT 6SM BR BKN020
     FM201700 20005KT P6SM OVC025
      AMD LTD TO CLD VIS AND WIND 2003/2011=



000
FTUS43 KMQT 191700
TAFCMX
TAF
KCMX 191735Z 1918/2018 19003KT P6SM BKN022
     FM200400 18004KT P6SM BKN030
     FM200800 20004KT P6SM BKN020
     FM201700 20003KT P6SM OVC025=



000
FTUS43 KMQT 191100
TAFSAW
TAF
KSAW 191131Z 1912/2012 VRB03KT P6SM OVC020
     FM191800 VRB03KT P6SM SCT020
     FM200400 20003KT 6SM BR SCT020
     FM200600 21003KT 6SM BR BKN020
      AMD LTD TO CLD VIS AND WIND 2003/2011=



000
FTUS43 KMQT 191100
TAFCMX
TAF
KCMX 191131Z 1912/2012 VRB03KT P6SM BKN015
     FM191600 17004KT P6SM SCT015 BKN150
     FM200400 19004KT P6SM BKN020=



000
FTUS43 KMQT 190600 AAA
TAFCMX
TAF AMD
KCMX 190600Z 1906/2006 VRB03KT P6SM SKC
      TEMPO 1906/1907 BKN019
     FM190700 VRB03KT P6SM BKN020
     FM191500 16004KT P6SM SCT030 BKN120=



000
FTUS43 KMQT 190500
TAFSAW
TAF
KSAW 190526Z 1906/2006 36003KT P6SM OVC018
     FM191700 18004KT P6SM SCT020 BKN120
      AMD LTD TO CLD VIS AND WIND TIL 191100=



000
FTUS43 KMQT 190500
TAFCMX
TAF
KCMX 190526Z 1906/2006 VRB03KT P6SM SKC
     FM190700 VRB03KT P6SM BKN020
     FM191500 16004KT P6SM SCT030 BKN120=



000
FTUS43 KMQT 190300 AAA
TAFSAW
TAF AMD
KSAW 190350Z 1904/1924 36003KT P6SM BKN018
     FM191300 VRB03KT P6SM SCT015
      AMD LTD TO CLD VIS AND WIND 1903/1911=



000
FTUS43 KMQT 190300 AAA
TAFSAW
TAF AMD
KSAW 190350Z 1904/1924 36003KT P6SM BKN018
     FM191300 VRB03KT P6SM SCT015
      AMD LTD TO CLD VIS AND WIND 1903/1911=



000
FTUS43 KMQT 182300
TAFSAW
TAF
KSAW 182321Z 1900/1924 01003KT P6SM SCT080
     FM190900 VRB03KT 4SM BR SCT005
     FM191300 VRB03KT P6SM BKN200
      AMD LTD TO CLD VIS AND WIND 1903/1911=



000
FTUS43 KMQT 182300
TAFCMX
TAF
KCMX 182321Z 1900/1924 VRB03KT P6SM SKC
     FM190900 00000KT 4SM BR SCT005
     FM191300 00000KT P6SM SCT035=



000
FTUS43 KMQT 181700 AAA
TAFCMX
TAF AMD
KCMX 181739Z 1818/1918 05004KT P6SM SKC
     FM190900 00000KT 6SM BR SCT006
     FM191100 00000KT 3SM BR SCT003
     FM191300 00000KT P6SM SCT035=



000
FTUS43 KMQT 181700
TAFSAW
TAF
KSAW 181737Z 1818/1918 03007KT P6SM SKC
     FM190000 01003KT P6SM SCT080
      AMD LTD TO CLD VIS AND WIND 1903/1911=



000
FTUS43 KMQT 181700
TAFCMX
TAF
KCMX 181737Z 1818/1918 05004KT P6SM SKC
     FM190900 00000KT 6SM BR SCT120
     FM191100 00000KT 3SM BR SCT050
     FM191300 00000KT P6SM SCT035=



    US Dept of Commerce
    National Oceanic and Atmospheric Administration
    National Weather Service
    1325 East West Highway
    Silver Spring, MD 20910
    Page Author: NWS Internet Services Team
Disclaimer
Information Quality
Credits
Glossary
Privacy Policy
Freedom of Information Act (FOIA)
About Us
Career Opportunities